Time;durP1;ratioP1;P1;durP2;ratioP2;P2;SDS_P1;SDS_P2;PMS_P1;PMS_P2;Temp;Humidity;BMP_temperature;BMP_pressure;BME280_temperature;BME280_humidity;BME280_pressure;Samples;Min_cycle;Max_cycle;Signal;HPM_P1;HPM_P2
2022/01/29 00:01:56;;;;;;;16.77;13.10;;;;;;;5.14;75.92;101708.13;10490880;28;20052;-62
2022/01/29 00:06:58;;;;;;;17.52;13.18;;;;;;;5.24;75.53;101706.91;10491908;28;20155;-61
2022/01/29 00:11:59;;;;;;;19.08;13.40;;;;;;;5.20;76.13;101702.66;10494029;28;20128;-61
2022/01/29 00:17:00;;;;;;;17.00;14.18;;;;;;;5.24;76.24;101722.75;10489092;28;20054;-61
2022/01/29 00:22:03;;;;;;;16.02;12.93;;;;;;;5.34;76.20;101715.34;10491412;28;20054;-61
2022/01/29 00:27:09;;;;;;;18.17;13.60;;;;;;;5.28;76.23;101716.47;10491698;28;20165;-61
2022/01/29 00:32:11;;;;;;;20.10;13.80;;;;;;;5.44;76.05;101724.69;10484976;28;20085;-61
2022/01/29 00:37:13;;;;;;;20.00;13.90;;;;;;;5.52;75.22;101705.91;10484084;28;20147;-61
2022/01/29 00:42:14;;;;;;;16.98;14.10;;;;;;;5.42;75.85;101712.44;10467433;28;20049;-62
2022/01/29 00:47:18;;;;;;;20.05;13.30;;;;;;;5.53;75.62;101712.94;10476459;28;20130;-61
2022/01/29 00:52:19;;;;;;;15.20;12.73;;;;;;;5.45;76.14;101702.66;10482247;28;20056;-64
2022/01/29 00:57:21;;;;;;;17.15;12.30;;;;;;;5.26;77.19;101691.88;10489055;28;20422;-61
2022/01/29 01:02:23;;;;;;;17.00;12.93;;;;;;;5.22;77.04;101687.59;10491831;28;20040;-61
2022/01/29 01:07:24;;;;;;;17.23;12.60;;;;;;;5.19;77.25;101666.59;10468645;28;20135;-61
2022/01/29 01:12:25;;;;;;;15.27;12.15;;;;;;;5.37;77.00;101682.72;10488096;28;20123;-63
2022/01/29 01:17:27;;;;;;;16.70;12.23;;;;;;;5.32;77.40;101667.88;10483153;28;20050;-62
2022/01/29 01:22:28;;;;;;;13.35;11.35;;;;;;;5.40;77.13;101657.03;10485725;28;20129;-62
2022/01/29 01:27:30;;;;;;;14.10;11.90;;;;;;;5.34;77.28;101637.94;10482053;28;20041;-62
2022/01/29 01:32:31;;;;;;;18.25;11.25;;;;;;;5.26;78.05;101639.06;10480414;28;20468;-62
2022/01/29 01:37:58;;;;;;;15.07;11.75;;;;;;;5.25;78.50;101632.03;10487847;28;20048;-62
2022/01/29 01:42:59;;;;;;;16.80;12.18;;;;;;;5.30;78.25;101611.63;10485673;28;20128;-62
2022/01/29 01:48:04;;;;;;;18.63;12.57;;;;;;;5.26;78.18;101594.19;10486880;28;20105;-62
2022/01/29 01:53:06;;;;;;;14.82;11.50;;;;;;;5.30;78.07;101595.78;10482514;28;20066;-62
2022/01/29 01:58:08;;;;;;;17.08;11.40;;;;;;;5.35;78.32;101577.13;10465917;28;20597;-61
2022/01/29 02:03:10;;;;;;;15.05;11.50;;;;;;;5.32;78.07;101571.97;10482285;28;20522;-61
2022/01/29 02:08:14;;;;;;;16.45;11.18;;;;;;;5.28;77.81;101539.56;10478553;28;20143;-60
2022/01/29 02:13:16;;;;;;;13.68;9.18;;;;;;;5.40;77.48;101547.91;10495822;28;20611;-61
2022/01/29 02:18:17;;;;;;;13.85;9.43;;;;;;;5.43;77.48;101553.06;10485095;28;20048;-61
2022/01/29 02:23:19;;;;;;;11.75;9.70;;;;;;;5.22;77.91;101529.19;10481843;28;20262;-60
2022/01/29 02:28:23;;;;;;;11.93;9.25;;;;;;;5.28;77.71;101534.28;10498238;28;20051;-61
2022/01/29 02:33:24;;;;;;;11.00;8.23;;;;;;;5.29;77.69;101538.63;10486014;28;20139;-61
2022/01/29 02:38:27;;;;;;;14.32;10.52;;;;;;;5.29;77.61;101533.34;10476528;28;20442;-61
2022/01/29 02:43:45;;;;;;;13.15;8.82;;;;;;;5.12;78.05;101485.63;10489518;28;20172;-63
2022/01/29 02:48:49;;;;;;;11.75;10.10;;;;;;;5.07;78.80;101503.38;10467976;28;20070;-62
2022/01/29 02:53:50;;;;;;;13.85;9.07;;;;;;;5.14;78.55;101491.69;10496053;28;20130;-61
2022/01/29 02:58:52;;;;;;;16.75;11.30;;;;;;;5.09;78.55;101491.88;10487577;28;20132;-61
2022/01/29 03:03:53;;;;;;;16.20;10.38;;;;;;;5.16;78.16;101481.91;10506990;28;20072;-62
2022/01/29 03:08:55;;;;;;;13.95;11.13;;;;;;;5.06;78.38;101467.34;10460400;28;20103;-61
2022/01/29 03:13:56;;;;;;;14.48;10.07;;;;;;;4.96;78.76;101459.78;10460948;28;20123;-61
2022/01/29 03:18:57;;;;;;;14.75;10.70;;;;;;;5.08;78.92;101490.13;10491245;28;20054;-61
2022/01/29 03:23:59;;;;;;;13.10;10.40;;;;;;;5.17;78.77;101483.66;10470665;28;20051;-60
2022/01/29 03:29:00;;;;;;;13.45;10.70;;;;;;;5.20;79.03;101474.75;10475683;28;20070;-60
2022/01/29 03:34:02;;;;;;;17.50;11.45;;;;;;;4.99;79.27;101444.78;10487557;28;20040;-61
2022/01/29 03:39:03;;;;;;;17.67;12.25;;;;;;;4.98;79.59;101443.03;10493082;28;20401;-60
2022/01/29 03:44:07;;;;;;;18.92;12.80;;;;;;;5.00;80.05;101443.84;10486652;28;20066;-60
2022/01/29 03:49:08;;;;;;;18.33;13.70;;;;;;;4.91;80.44;101434.50;10494185;28;20064;-60
2022/01/29 03:54:10;;;;;;;16.48;11.70;;;;;;;4.93;81.05;101446.72;10491163;28;20040;-61
2022/01/29 03:59:11;;;;;;;18.77;12.43;;;;;;;4.94;80.41;101424.69;10476122;28;20044;-60
2022/01/29 04:04:12;;;;;;;14.65;11.82;;;;;;;4.75;80.73;101407.84;10489627;28;20192;-60
2022/01/29 04:09:14;;;;;;;17.05;11.65;;;;;;;4.93;80.85;101437.94;10471335;28;20797;-61
2022/01/29 04:14:17;;;;;;;14.70;10.65;;;;;;;5.05;80.32;101439.25;10488544;28;20054;-61
2022/01/29 04:19:19;;;;;;;14.80;11.73;;;;;;;4.91;81.20;101427.44;10491753;28;20056;-61
2022/01/29 04:24:20;;;;;;;13.18;11.27;;;;;;;4.96;80.89;101422.84;10468047;28;20051;-60
2022/01/29 04:29:22;;;;;;;15.95;11.48;;;;;;;4.93;81.20;101422.97;10462845;28;20044;-61
2022/01/29 04:34:23;;;;;;;15.65;10.80;;;;;;;4.93;80.76;101417.69;10475195;28;20254;-61
2022/01/29 04:39:25;;;;;;;16.85;11.35;;;;;;;5.02;80.76;101420.91;10492780;28;20060;-60
2022/01/29 04:44:26;;;;;;;14.45;10.73;;;;;;;5.05;80.24;101407.59;10467984;28;20048;-61
2022/01/29 04:49:27;;;;;;;14.02;10.90;;;;;;;4.94;80.34;101394.81;10479232;28;20451;-61
2022/01/29 04:54:29;;;;;;;15.38;11.32;;;;;;;4.88;80.84;101397.66;10485015;28;20052;-61
2022/01/29 04:59:30;;;;;;;13.57;10.25;;;;;;;5.02;80.38;101410.34;10464050;28;20614;-61
2022/01/29 05:04:32;;;;;;;16.13;11.95;;;;;;;4.98;80.59;101416.66;10474658;28;20132;-61
2022/01/29 05:09:33;;;;;;;14.57;10.75;;;;;;;4.97;80.50;101386.78;10484797;28;20043;-61
2022/01/29 05:14:44;;;;;;;16.55;10.40;;;;;;;4.94;80.53;101373.69;10484653;28;20052;-63
2022/01/29 05:30:25;;;;;;;15.02;9.88;;;;;;;5.10;80.55;101381.84;10481093;28;20037;-61
2022/01/29 05:35:27;;;;;;;14.20;10.43;;;;;;;5.01;80.32;101376.94;10486067;28;21041;-61
2022/01/29 05:40:28;;;;;;;13.63;9.93;;;;;;;4.88;80.51;101355.44;10484938;28;20055;-61
2022/01/29 05:45:29;;;;;;;11.18;8.07;;;;;;;4.95;80.70;101367.47;10465887;28;20054;-62
2022/01/29 05:50:31;;;;;;;11.20;8.75;;;;;;;4.94;80.34;101365.78;10487213;28;20052;-61
2022/01/29 05:55:32;;;;;;;12.68;8.70;;;;;;;4.89;80.96;101360.66;10466454;28;20078;-61
2022/01/29 06:00:34;;;;;;;11.75;8.90;;;;;;;4.93;80.91;101369.34;10482411;28;20044;-61
2022/01/29 06:05:36;;;;;;;11.70;8.57;;;;;;;4.78;81.25;101342.63;10466581;28;20184;-61
2022/01/29 06:10:38;;;;;;;12.93;10.05;;;;;;;4.94;80.94;101364.00;10477895;28;20151;-61
2022/01/29 06:15:45;;;;;;;11.82;8.45;;;;;;;4.90;81.12;101346.56;10485206;28;20090;-62
2022/01/29 06:20:48;;;;;;;12.15;8.93;;;;;;;4.86;81.84;101339.69;10470071;28;20035;-61
2022/01/29 06:25:50;;;;;;;11.38;8.10;;;;;;;4.83;81.98;101338.94;10464023;28;20412;-61
2022/01/29 06:30:52;;;;;;;12.88;10.60;;;;;;;4.81;82.55;101335.53;10483483;28;20135;-61
2022/01/29 06:35:53;;;;;;;13.23;9.88;;;;;;;4.72;83.16;101356.06;10478686;28;20043;-62
2022/01/29 06:40:55;;;;;;;14.27;8.90;;;;;;;4.67;83.65;101336.91;10458506;28;20044;-62
2022/01/29 06:45:56;;;;;;;13.35;8.82;;;;;;;4.59;83.84;101337.22;10461085;28;20052;-60
2022/01/29 06:50:57;;;;;;;10.98;9.32;;;;;;;4.63;84.32;101343.22;10465207;28;20733;-60
2022/01/29 06:55:59;;;;;;;12.40;9.57;;;;;;;4.73;83.40;101339.31;10473024;28;20046;-62
2022/01/29 07:01:00;;;;;;;12.18;9.40;;;;;;;4.69;84.29;101344.78;10470285;28;20107;-63
2022/01/29 07:06:04;;;;;;;13.57;10.35;;;;;;;4.63;84.90;101318.63;10457302;28;20045;-61
2022/01/29 07:11:05;;;;;;;11.48;9.30;;;;;;;4.67;85.80;101333.41;10465416;28;20397;-61
2022/01/29 07:16:06;;;;;;;14.35;10.70;;;;;;;4.66;86.94;101334.34;10466090;28;20051;-63
2022/01/29 07:21:08;;;;;;;13.20;9.23;;;;;;;4.66;87.16;101313.25;10468214;28;20045;-61
2022/01/29 07:26:09;;;;;;;15.55;10.85;;;;;;;4.48;88.25;101297.19;10465150;28;20060;-62
2022/01/29 07:31:11;;;;;;;12.75;10.75;;;;;;;4.59;88.30;101310.84;10470527;28;20048;-63
2022/01/29 07:36:12;;;;;;;13.18;10.35;;;;;;;4.51;89.59;101294.44;10459027;28;20401;-60
2022/01/29 07:41:15;;;;;;;12.32;10.18;;;;;;;4.56;89.42;101296.91;10448837;28;20056;-59
2022/01/29 07:46:16;;;;;;;13.85;9.40;;;;;;;4.53;89.18;101297.00;10466078;28;20054;-59
2022/01/29 07:51:20;;;;;;;13.33;10.40;;;;;;;4.54;89.47;101299.59;10470934;28;20582;-61
2022/01/29 07:56:22;;;;;;;14.82;10.45;;;;;;;4.80;88.68;101300.34;10473956;28;20572;-58
2022/01/29 08:01:23;;;;;;;12.80;11.18;;;;;;;4.62;88.84;101275.56;10469961;28;20419;-60
2022/01/29 08:06:26;;;;;;;12.43;9.93;;;;;;;4.71;87.75;101290.16;10452410;28;20048;-60
2022/01/29 08:11:27;;;;;;;13.48;10.55;;;;;;;4.60;87.77;101294.06;10465546;28;20393;-64
2022/01/29 08:16:29;;;;;;;11.15;9.38;;;;;;;4.77;87.03;101300.47;10465038;28;20066;-60
2022/01/29 08:21:30;;;;;;;11.18;8.68;;;;;;;4.82;86.33;101302.94;10462120;28;20198;-63
2022/01/29 08:26:32;;;;;;;11.88;10.18;;;;;;;4.77;85.19;101292.56;10462974;28;20051;-59
2022/01/29 08:31:33;;;;;;;11.30;8.55;;;;;;;4.92;84.17;101289.31;10464552;28;20056;-60
2022/01/29 08:36:34;;;;;;;11.68;8.65;;;;;;;4.89;84.25;101288.56;10450617;28;20040;-59
2022/01/29 08:41:36;;;;;;;9.25;7.53;;;;;;;5.04;83.55;101301.13;10461629;28;20699;-61
2022/01/29 08:46:37;;;;;;;10.75;7.68;;;;;;;5.07;83.13;101297.53;10444684;28;20608;-61
2022/01/29 08:51:39;;;;;;;10.30;8.27;;;;;;;4.94;83.34;101284.84;10462189;28;20123;-59
2022/01/29 08:56:40;;;;;;;10.10;7.35;;;;;;;5.03;83.50;101285.38;10462385;28;20044;-61
2022/01/29 09:01:42;;;;;;;9.57;7.82;;;;;;;5.07;83.29;101271.13;10466317;28;20052;-62
2022/01/29 09:06:43;;;;;;;7.78;6.97;;;;;;;5.19;82.74;101269.78;10462316;28;20056;-63
2022/01/29 09:11:44;;;;;;;8.32;6.72;;;;;;;5.17;82.73;101250.50;10443764;28;20052;-61
2022/01/29 09:16:46;;;;;;;7.63;5.80;;;;;;;5.03;82.83;101241.38;10464822;28;20048;-61
2022/01/29 09:21:48;;;;;;;7.32;5.20;;;;;;;5.15;82.12;101221.53;10464401;28;20058;-61
2022/01/29 09:26:49;;;;;;;7.75;5.50;;;;;;;5.25;81.96;101225.47;10461169;28;20319;-60
2022/01/29 09:31:51;;;;;;;6.38;5.57;;;;;;;5.13;81.99;101223.38;10462421;28;20049;-60
2022/01/29 09:36:52;;;;;;;5.93;5.32;;;;;;;5.22;82.11;101237.97;10460739;28;20106;-58
2022/01/29 09:41:55;;;;;;;5.90;4.60;;;;;;;5.25;81.72;101233.41;10456016;28;20044;-61
2022/01/29 09:46:57;;;;;;;5.20;4.13;;;;;;;5.30;81.71;101236.72;10465017;28;20169;-61
2022/01/29 09:52:00;;;;;;;3.90;3.35;;;;;;;5.34;81.44;101242.72;10452465;28;20460;-62
2022/01/29 09:57:02;;;;;;;3.88;3.47;;;;;;;5.40;80.62;101231.03;10464879;28;20056;-61
2022/01/29 10:02:13;;;;;;;3.33;2.55;;;;;;;5.31;80.70;101227.88;10463040;28;20051;-61
2022/01/29 10:07:25;;;;;;;4.80;2.53;;;;;;;5.35;80.75;101231.25;10467112;28;20117;-61
2022/01/29 10:12:31;;;;;;;3.10;2.40;;;;;;;5.10;80.65;101176.00;10468883;28;20046;-60
2022/01/29 10:17:54;;;;;;;3.58;2.35;;;;;;;5.42;80.13;101218.63;10464852;28;20075;-62
2022/01/29 10:22:58;;;;;;;2.42;2.10;;;;;;;5.35;80.74;101225.09;10462868;28;20048;-59
2022/01/29 10:28:07;;;;;;;2.55;1.60;;;;;;;5.44;80.47;101230.00;10456275;28;20155;-59
2022/01/29 10:33:19;;;;;;;2.75;2.00;;;;;;;5.44;80.13;101222.06;10473029;28;20040;-61
2022/01/29 10:38:26;;;;;;;3.22;2.13;;;;;;;5.36;80.30;101222.41;10468618;28;20562;-61
2022/01/29 10:43:27;;;;;;;2.67;2.30;;;;;;;5.45;80.56;101207.91;10468643;28;20514;-60
2022/01/29 10:48:45;;;;;;;2.25;1.88;;;;;;;5.47;80.42;101219.28;10455745;28;20085;-60
2022/01/29 10:53:47;;;;;;;2.50;2.22;;;;;;;5.56;80.55;101202.19;10472189;28;20051;-61
2022/01/29 10:58:50;;;;;;;2.53;2.22;;;;;;;5.61;80.26;101206.31;10451941;28;20050;-61
2022/01/29 11:03:54;;;;;;;2.33;2.03;;;;;;;5.30;81.09;101173.34;10468512;28;20149;-61
2022/01/29 11:08:57;;;;;;;2.77;1.90;;;;;;;5.53;81.41;101200.53;10465478;28;20051;-61
2022/01/29 11:13:59;;;;;;;2.10;1.90;;;;;;;5.58;80.67;101205.59;10459432;28;20052;-62
2022/01/29 11:19:01;;;;;;;3.42;2.80;;;;;;;5.57;80.89;101186.28;10485483;28;20063;-62
2022/01/29 12:17:05;;;;;;;4.32;2.92;;;;;;;5.46;84.23;101067.91;10454887;28;20901;-63
2022/01/29 12:22:10;;;;;;;4.18;3.50;;;;;;;5.49;85.12;101067.78;10423281;28;20045;-63
2022/01/29 12:27:11;;;;;;;3.37;2.67;;;;;;;5.43;86.21;101069.81;10421215;28;20102;-61
2022/01/29 12:32:13;;;;;;;4.32;3.15;;;;;;;5.48;86.74;101049.34;10407375;28;20049;-59
2022/01/29 12:37:19;;;;;;;3.10;2.80;;;;;;;5.60;86.46;101043.50;10369268;28;20049;-62
2022/01/29 12:42:31;;;;;;;3.25;2.80;;;;;;;5.59;85.76;101041.78;10370862;28;20045;-62
2022/01/29 12:47:35;;;;;;;2.58;2.33;;;;;;;5.48;86.57;101021.16;10372624;28;20068;-61
2022/01/29 12:52:36;;;;;;;3.58;2.30;;;;;;;5.42;86.27;100997.69;10378745;28;21290;-62
2022/01/29 12:57:46;;;;;;;2.63;2.35;;;;;;;5.50;86.80;101010.53;10374010;28;20052;-60
2022/01/29 13:02:49;;;;;;;3.60;3.33;;;;;;;5.56;87.32;101014.66;10375145;28;20050;-62
2022/01/29 13:07:50;;;;;;;3.42;2.70;;;;;;;5.66;86.33;101000.09;10373982;28;20667;-61
2022/01/29 13:12:52;;;;;;;4.05;2.40;;;;;;;5.69;86.09;100977.94;10392351;28;20490;-62
2022/01/29 13:17:53;;;;;;;3.17;2.22;;;;;;;5.58;86.32;100966.09;10379849;28;20827;-60
2022/01/29 13:22:55;;;;;;;3.17;2.60;;;;;;;5.58;85.68;100981.09;10377132;28;20045;-62
2022/01/29 13:28:08;;;;;;;3.47;2.60;;;;;;;5.61;85.22;100968.59;10351708;28;20049;-60
2022/01/29 13:33:18;;;;;;;3.72;2.50;;;;;;;5.84;84.50;100967.50;10349280;28;20110;-64
2022/01/29 13:38:27;;;;;;;2.85;2.45;;;;;;;5.79;84.21;100972.13;10349970;28;20132;-62
2022/01/29 14:09:57;;;;;;;2.38;1.98;;;;;;;5.60;85.75;100921.13;10504946;28;20724;-60
2022/01/29 14:15:06;;;;;;;2.50;2.30;;;;;;;5.66;86.31;100929.63;10406178;28;20167;-61
2022/01/29 14:20:13;;;;;;;3.20;2.15;;;;;;;5.83;85.81;100918.22;10424853;28;20668;-62
2022/01/29 14:25:18;;;;;;;2.17;1.83;;;;;;;5.89;85.13;100926.78;10425644;28;20513;-60
2022/01/29 14:30:21;;;;;;;2.42;2.22;;;;;;;5.88;84.85;100915.31;10421559;28;20120;-63
2022/01/29 14:35:22;;;;;;;3.85;2.10;;;;;;;6.06;84.63;100913.56;10426910;28;20195;-60
2022/01/29 14:40:56;;;;;;;2.20;1.70;;;;;;;6.12;83.98;100897.41;10427744;28;20195;-63
2022/01/29 15:23:34;;;;;;;2.22;2.00;;;;;;;6.37;85.42;100822.94;10537568;27;20816;-69
2022/01/29 15:28:36;;;;;;;2.42;1.67;;;;;;;6.50;85.28;100832.84;10538435;28;20239;-69
2022/01/29 15:33:37;;;;;;;2.42;1.50;;;;;;;6.67;84.73;100822.22;10538168;28;20052;-71
2022/01/29 15:38:39;;;;;;;1.77;1.40;;;;;;;6.80;84.61;100817.09;10539291;28;20054;-70
2022/01/29 15:43:40;;;;;;;1.35;1.25;;;;;;;6.89;83.94;100821.00;10537799;28;20123;-70
2022/01/29 15:48:42;;;;;;;1.35;1.25;;;;;;;6.91;83.63;100816.50;10534597;28;20052;-69
2022/01/29 15:53:43;;;;;;;1.23;1.10;;;;;;;6.95;83.48;100807.44;10538520;28;20048;-70
2022/01/29 15:58:45;;;;;;;2.42;2.08;;;;;;;6.96;83.01;100806.50;10536573;28;20146;-70
2022/01/29 16:03:47;;;;;;;2.35;2.15;;;;;;;6.98;82.98;100828.44;10537545;28;20558;-70
2022/01/29 16:08:51;;;;;;;1.63;1.50;;;;;;;7.04;82.92;100836.03;10537873;28;20091;-69
2022/01/29 16:20:15;;;;;;;1.95;1.30;;;;;;;7.16;82.28;100830.97;10433790;27;20381;-70
2022/01/29 16:25:16;;;;;;;2.03;0.95;;;;;;;7.19;81.90;100820.22;10429783;27;20418;-70
2022/01/29 16:33:07;;;;;;;2.22;1.30;;;;;;;7.02;82.29;100816.72;10504032;27;20575;-69
2022/01/29 16:38:09;;;;;;;2.45;1.80;;;;;;;6.99;82.79;100822.19;10492319;28;20075;-72
2022/01/29 16:43:11;;;;;;;2.45;1.70;;;;;;;6.96;83.14;100795.91;10481759;28;20138;-71
2022/01/29 16:48:17;;;;;;;4.47;2.15;;;;;;;6.93;83.39;100798.72;10422234;28;20048;-70
2022/01/29 16:53:19;;;;;;;3.05;1.85;;;;;;;6.94;83.27;100795.16;10437743;28;20041;-70
2022/01/29 16:58:21;;;;;;;2.50;2.15;;;;;;;6.99;83.45;100802.81;10450441;28;20215;-70
2022/01/29 17:03:24;;;;;;;2.47;1.67;;;;;;;7.07;83.22;100790.88;10445196;28;20678;-69
2022/01/29 17:08:26;;;;;;;2.70;1.52;;;;;;;7.08;83.50;100799.66;10441311;28;20128;-70
2022/01/29 17:13:27;;;;;;;2.28;1.65;;;;;;;7.10;83.76;100800.44;10464453;28;20089;-71
2022/01/29 17:18:29;;;;;;;3.75;1.48;;;;;;;7.14;84.36;100806.38;10471945;28;20041;-73
2022/01/29 17:23:31;;;;;;;1.55;1.20;;;;;;;7.22;84.74;100798.84;10505430;28;20083;-73
2022/01/29 17:28:35;;;;;;;2.50;2.10;;;;;;;7.24;85.10;100791.69;10453689;28;20141;-70
2022/01/29 17:33:36;;;;;;;1.30;1.20;;;;;;;7.26;85.71;100787.13;10433778;28;20052;-71
2022/01/29 17:38:39;;;;;;;2.22;1.73;;;;;;;7.32;86.45;100789.44;10433910;28;20070;-71
2022/01/29 17:43:40;;;;;;;1.58;1.27;;;;;;;7.38;88.06;100789.06;10414307;28;20615;-69
2022/01/29 17:48:42;;;;;;;1.63;0.98;;;;;;;7.36;90.36;100790.97;10407651;28;20059;-71
2022/01/29 17:53:44;;;;;;;1.13;0.90;;;;;;;7.31;92.74;100758.63;10408797;28;20169;-72
2022/01/29 17:58:45;;;;;;;1.17;1.08;;;;;;;7.34;94.01;100787.56;10397537;28;20446;-71
2022/01/29 18:03:47;;;;;;;1.70;1.42;;;;;;;7.31;95.04;100771.84;10394746;28;20131;-71
2022/01/29 18:08:49;;;;;;;1.98;1.38;;;;;;;7.34;96.44;100781.41;10400200;28;20061;-70
2022/01/29 18:13:51;;;;;;;1.33;1.20;;;;;;;7.24;97.40;100786.38;10408122;28;20499;-71
2022/01/29 18:18:53;;;;;;;1.55;1.33;;;;;;;7.30;98.30;100798.44;10409755;28;20177;-73
2022/01/29 18:23:56;;;;;;;1.20;1.10;;;;;;;7.26;99.57;100816.28;10410576;28;20103;-70
2022/01/29 18:28:58;;;;;;;2.17;1.55;;;;;;;7.22;100.00;100825.31;10400689;28;20442;-69
2022/01/29 18:33:59;;;;;;;2.17;1.35;;;;;;;7.28;100.00;100819.69;10425153;28;20139;-70
2022/01/29 18:39:02;;;;;;;1.67;1.42;;;;;;;7.36;100.00;100836.00;10448231;28;20140;-71
2022/01/29 18:44:04;;;;;;;1.75;1.55;;;;;;;7.30;100.00;100828.41;10430095;28;20048;-71
2022/01/29 18:49:05;;;;;;;1.40;1.30;;;;;;;7.37;100.00;100842.13;10409613;28;21225;-71
2022/01/29 18:54:06;;;;;;;1.52;1.42;;;;;;;7.38;100.00;100852.63;10423811;28;20477;-74
2022/01/29 18:59:08;;;;;;;2.35;2.03;;;;;;;7.41;100.00;100841.88;10435313;28;21261;-70
2022/01/29 19:04:09;;;;;;;2.40;1.98;;;;;;;7.44;100.00;100835.53;10448819;28;20049;-71
2022/01/29 19:09:10;;;;;;;2.38;2.17;;;;;;;7.50;100.00;100839.63;10449173;28;22867;-68
2022/01/29 19:14:12;;;;;;;2.08;1.88;;;;;;;7.49;100.00;100827.31;10415959;28;20075;-71
2022/01/29 19:19:14;;;;;;;2.40;2.20;;;;;;;7.49;100.00;100837.91;10394401;28;20647;-68
2022/01/29 19:24:16;;;;;;;4.20;3.42;;;;;;;7.52;100.00;100816.53;10408274;28;20053;-67
2022/01/29 19:29:17;;;;;;;2.75;2.47;;;;;;;7.55;99.72;100816.38;10403497;28;20547;-70
2022/01/29 19:34:19;;;;;;;2.80;2.30;;;;;;;7.59;99.60;100818.75;10405292;28;20060;-71
2022/01/29 19:39:23;;;;;;;3.25;2.75;;;;;;;7.51;100.00;100805.09;10406623;28;21079;-72
2022/01/29 19:44:24;;;;;;;2.42;2.22;;;;;;;7.81;99.53;100803.34;10400320;28;20044;-70
2022/01/29 19:49:30;;;;;;;1.80;1.58;;;;;;;7.71;97.11;100777.41;10395561;28;20439;-72
2022/01/29 19:54:31;;;;;;;2.63;1.70;;;;;;;7.71;97.35;100792.47;10395580;28;20070;-69
2022/01/29 19:59:33;;;;;;;2.10;1.65;;;;;;;7.57;97.71;100772.09;10400354;28;20414;-71
2022/01/29 20:04:34;;;;;;;1.60;1.50;;;;;;;7.58;98.27;100789.69;10403755;28;20052;-69
2022/01/29 20:09:38;;;;;;;1.80;1.30;;;;;;;7.59;97.52;100780.81;10400687;28;20044;-73
2022/01/29 20:14:39;;;;;;;2.20;1.45;;;;;;;7.61;97.11;100784.19;10429882;28;20450;-72
2022/01/29 20:19:40;;;;;;;1.55;1.45;;;;;;;7.63;96.34;100782.34;10410803;28;20071;-73
2022/01/29 20:24:43;;;;;;;2.78;1.52;;;;;;;7.63;96.38;100798.22;10412043;28;20162;-72
2022/01/29 20:29:45;;;;;;;2.55;1.70;;;;;;;7.61;95.80;100792.16;10433547;28;20321;-73
2022/01/29 20:34:46;;;;;;;3.03;1.83;;;;;;;7.56;95.67;100773.03;10401821;28;20491;-73
2022/01/29 20:39:48;;;;;;;4.95;4.55;;;;;;;7.58;95.61;100782.63;10430326;28;20052;-73
2022/01/29 20:44:49;;;;;;;3.63;3.38;;;;;;;7.61;95.66;100784.19;10398481;28;20045;-73
2022/01/29 20:49:51;;;;;;;2.63;2.42;;;;;;;7.68;94.43;100769.66;10395031;28;20045;-72
2022/01/29 20:54:55;;;;;;;3.80;3.60;;;;;;;7.74;94.37;100763.97;10430267;28;20474;-70
2022/01/29 20:59:57;;;;;;;3.50;3.30;;;;;;;7.77;93.64;100765.59;10400007;28;20052;-71
2022/01/29 21:04:58;;;;;;;3.47;3.22;;;;;;;7.82;93.68;100757.38;10429416;28;20052;-72
2022/01/29 21:10:00;;;;;;;3.05;2.90;;;;;;;7.77;92.89;100761.13;10358092;28;20582;-72
2022/01/29 21:15:02;;;;;;;3.42;3.22;;;;;;;7.78;93.06;100768.16;10358056;28;20067;-71
2022/01/29 21:20:06;;;;;;;2.55;2.45;;;;;;;7.79;92.98;100776.94;10365321;28;20067;-71
2022/01/29 21:25:09;;;;;;;2.65;2.55;;;;;;;7.77;93.16;100779.69;10390857;28;20057;-72
2022/01/29 21:30:12;;;;;;;2.75;2.60;;;;;;;7.76;93.08;100762.09;10398703;28;20408;-71
2022/01/29 21:35:13;;;;;;;1.15;0.88;;;;;;;7.74;93.11;100748.06;10362428;28;20136;-72
2022/01/29 21:40:15;;;;;;;2.83;2.50;;;;;;;7.73;93.40;100772.91;10366422;28;20057;-72
2022/01/29 21:45:16;;;;;;;2.55;2.42;;;;;;;7.83;92.71;100788.22;10363018;28;20072;-71
2022/01/29 21:50:19;;;;;;;1.73;1.63;;;;;;;7.78;94.60;100818.50;10365393;28;20046;-71
2022/01/29 21:55:21;;;;;;;4.07;2.35;;;;;;;7.73;95.51;100852.41;10364305;28;20076;-72
2022/01/29 22:00:23;;;;;;;4.63;2.05;;;;;;;7.70;96.12;100868.47;10399748;28;20063;-68
2022/01/29 22:05:26;;;;;;;3.33;2.55;;;;;;;7.78;94.88;100868.03;10400117;28;20462;-70
2022/01/29 22:10:27;;;;;;;4.47;3.13;;;;;;;7.89;94.00;100865.56;10401852;28;20056;-69
2022/01/29 22:15:28;;;;;;;5.03;2.17;;;;;;;7.99;93.79;100867.66;10407783;28;20046;-71
2022/01/29 22:20:30;;;;;;;3.00;1.48;;;;;;;7.91;93.95;100868.13;10404545;28;20049;-70
2022/01/29 22:25:31;;;;;;;3.67;1.98;;;;;;;7.97;93.94;100875.72;10400857;28;20127;-69
2022/01/29 22:30:33;;;;;;;5.88;2.13;;;;;;;7.98;92.00;100882.75;10403519;28;20526;-70
2022/01/29 22:35:34;;;;;;;7.55;2.65;;;;;;;8.03;88.24;100891.28;10400477;28;20056;-70
2022/01/29 22:40:37;;;;;;;7.75;3.13;;;;;;;8.09;85.46;100890.91;10400452;28;20049;-72
2022/01/29 22:45:39;;;;;;;13.85;3.22;;;;;;;8.15;82.71;100900.28;10402505;28;20354;-70
2022/01/29 22:50:40;;;;;;;6.90;2.97;;;;;;;8.09;83.28;100901.53;10436706;28;20079;-71
2022/01/29 22:55:42;;;;;;;10.35;3.10;;;;;;;8.13;78.23;100907.47;10402208;28;20538;-72
2022/01/29 23:00:44;;;;;;;10.40;3.35;;;;;;;8.17;76.94;100921.41;10399921;28;20487;-71
2022/01/29 23:05:45;;;;;;;12.57;2.90;;;;;;;8.21;75.83;100914.97;10401122;28;20049;-72
2022/01/29 23:10:54;;;;;;;9.15;2.90;;;;;;;8.16;76.48;100911.75;10406403;28;20428;-71
2022/01/29 23:16:15;;;;;;;9.25;3.20;;;;;;;8.08;75.49;100925.47;10432507;28;20124;-71
2022/01/29 23:26:37;;;;;;;9.02;3.40;;;;;;;8.11;74.57;100915.53;10402548;28;20120;-69
2022/01/29 23:31:42;;;;;;;10.43;3.55;;;;;;;8.09;76.28;100928.03;10408742;28;20132;-69
2022/01/29 23:36:50;;;;;;;9.80;3.67;;;;;;;8.03;75.94;100923.09;10405524;28;20181;-68
2022/01/29 23:42:07;;;;;;;12.05;3.72;;;;;;;8.02;75.57;100920.53;10438360;28;20073;-71
2022/01/29 23:52:10;;;;;;;8.85;3.75;;;;;;;8.15;74.05;100932.09;10398318;28;20475;-70
2022/01/29 23:57:11;;;;;;;11.07;4.60;;;;;;;8.29;74.56;100929.50;10397510;28;20059;-71
